Time;durP1;ratioP1;P1;durP2;ratioP2;P2;SDS_P1;SDS_P2;PMS_P1;PMS_P2;Temp;Humidity;BMP_temperature;BMP_pressure;BME280_temperature;BME280_humidity;BME280_pressure;Samples;Min_cycle;Max_cycle;Signal;HPM_P1;HPM_P2
2022/02/16 00:01:14;;;;;;;265.90;153.12;;;;;;;4.91;73.54;94459.27;1553431;92;21119;-45
2022/02/16 00:03:40;;;;;;;281.38;159.50;;;;;;;4.89;73.24;94457.55;1553306;92;21125;-48
2022/02/16 00:06:06;;;;;;;264.23;152.93;;;;;;;4.86;73.72;94457.61;1553250;91;21536;-46
2022/02/16 00:08:35;;;;;;;252.20;148.10;;;;;;;4.94;73.92;94444.80;1552174;91;21132;-45
2022/02/16 00:11:02;;;;;;;275.35;151.10;;;;;;;5.07;73.62;94432.09;1553502;92;21421;-46
2022/02/16 00:13:28;;;;;;;248.10;139.43;;;;;;;5.16;73.36;94439.11;1552321;92;20972;-47
2022/02/16 00:15:55;;;;;;;280.67;155.07;;;;;;;5.24;72.68;94441.27;1555251;92;21858;-46
2022/02/16 00:18:21;;;;;;;259.15;147.32;;;;;;;5.16;72.44;94439.72;1553702;91;21462;-46
2022/02/16 00:20:48;;;;;;;276.40;153.18;;;;;;;5.09;72.42;94443.34;1551857;91;21031;-46
2022/02/16 00:23:15;;;;;;;295.73;159.10;;;;;;;4.96;72.38;94441.06;1554601;91;21054;-46
2022/02/16 00:25:41;;;;;;;291.75;158.27;;;;;;;4.91;72.83;94442.14;1555656;90;21072;-47
2022/02/16 00:28:10;;;;;;;253.70;141.80;;;;;;;4.92;73.02;94443.09;1531151;91;21242;-46
2022/02/16 00:30:37;;;;;;;254.43;144.87;;;;;;;4.93;72.82;94447.35;1553116;92;21086;-46
2022/02/16 00:33:03;;;;;;;244.93;140.35;;;;;;;4.95;73.31;94451.79;1553482;91;21120;-46
2022/02/16 00:35:30;;;;;;;227.22;139.15;;;;;;;5.04;73.07;94446.57;1553979;91;21075;-46
2022/02/16 00:37:56;;;;;;;229.82;133.37;;;;;;;5.12;72.92;94447.20;1554135;92;21047;-46
2022/02/16 00:40:23;;;;;;;245.65;143.75;;;;;;;5.16;72.35;94448.65;1551350;91;21179;-47
2022/02/16 00:42:50;;;;;;;251.67;146.93;;;;;;;5.14;72.38;94446.19;1553702;92;21603;-47
2022/02/16 00:45:17;;;;;;;255.32;149.20;;;;;;;5.07;72.19;94448.45;1553997;92;21001;-46
2022/02/16 00:47:46;;;;;;;287.20;156.10;;;;;;;4.94;72.55;94452.23;1553914;90;21122;-47
2022/02/16 00:50:13;;;;;;;257.37;149.00;;;;;;;4.94;72.98;94446.77;1535993;92;21038;-46
2022/02/16 00:52:40;;;;;;;237.93;145.00;;;;;;;4.99;72.99;94440.83;1554631;91;21228;-48
2022/02/16 00:55:08;;;;;;;243.75;141.73;;;;;;;4.95;72.72;94449.67;1554721;91;20995;-47
2022/02/16 00:57:35;;;;;;;264.85;151.42;;;;;;;4.83;72.73;94436.66;1552434;91;21490;-46
2022/02/16 01:00:06;;;;;;;271.27;154.63;;;;;;;4.73;73.25;94435.66;1554853;91;20987;-46
2022/02/16 01:02:36;;;;;;;257.60;151.47;;;;;;;4.79;73.72;94450.34;1549681;91;21090;-46
2022/02/16 01:05:04;;;;;;;261.15;152.68;;;;;;;4.88;73.40;94433.44;1536749;92;21177;-46
2022/02/16 01:07:32;;;;;;;267.98;159.32;;;;;;;4.83;73.25;94436.05;1552941;92;21081;-46
2022/02/16 01:10:00;;;;;;;252.90;148.95;;;;;;;4.82;73.33;94431.03;1555928;90;21116;-47
2022/02/16 01:12:26;;;;;;;260.73;154.55;;;;;;;4.85;73.48;94415.20;1535483;92;21060;-45
2022/02/16 01:14:56;;;;;;;237.00;146.57;;;;;;;4.83;73.13;94420.30;1536619;92;21052;-47
2022/02/16 01:17:24;;;;;;;206.75;128.23;;;;;;;4.82;73.09;94418.16;1552330;92;21169;-46
2022/02/16 01:19:55;;;;;;;197.85;117.57;;;;;;;4.85;72.96;94422.80;1517449;91;21122;-46
2022/02/16 01:22:23;;;;;;;177.22;107.67;;;;;;;4.90;73.03;94420.94;1548769;90;21029;-45
2022/02/16 01:24:51;;;;;;;194.13;115.67;;;;;;;4.97;72.59;94414.59;1552542;91;21664;-46
2022/02/16 01:27:19;;;;;;;200.13;124.07;;;;;;;4.97;72.37;94414.59;1534870;92;21059;-45
2022/02/16 01:29:48;;;;;;;197.25;122.98;;;;;;;4.95;72.17;94413.63;1552286;92;21237;-46
2022/02/16 01:32:20;;;;;;;205.10;125.67;;;;;;;4.89;72.07;94418.05;1543846;92;21548;-47
2022/02/16 01:34:47;;;;;;;192.20;112.52;;;;;;;4.79;72.29;94411.44;1540887;92;21062;-46
2022/02/16 01:37:14;;;;;;;221.50;134.20;;;;;;;4.77;72.38;94405.03;1542588;92;21090;-46
2022/02/16 01:39:41;;;;;;;209.80;122.65;;;;;;;4.69;72.47;94411.03;1528898;91;20913;-47
2022/02/16 01:42:15;;;;;;;228.07;133.50;;;;;;;4.58;72.38;94416.67;1540561;91;21165;-46
2022/02/16 01:44:43;;;;;;;234.22;135.10;;;;;;;4.46;72.62;94406.37;1555616;92;21028;-46
2022/02/16 01:47:10;;;;;;;210.45;121.28;;;;;;;4.38;72.89;94409.05;1535809;91;20999;-46
2022/02/16 01:49:38;;;;;;;213.22;125.07;;;;;;;4.32;72.87;94416.17;1553363;91;21057;-46
2022/02/16 01:52:05;;;;;;;222.37;132.07;;;;;;;4.27;73.07;94412.54;1554153;90;21626;-47
2022/02/16 01:54:36;;;;;;;222.25;126.78;;;;;;;4.28;73.54;94410.60;1552815;91;21832;-47
2022/02/16 01:57:06;;;;;;;266.55;154.38;;;;;;;4.30;73.12;94407.66;1553482;90;21612;-46
2022/02/16 01:59:35;;;;;;;279.10;157.50;;;;;;;4.17;73.12;94406.70;1552849;90;21134;-47
2022/02/16 02:02:22;;;;;;;242.70;145.47;;;;;;;4.11;73.70;94406.22;1551521;91;21172;-46
2022/02/16 02:04:50;;;;;;;250.70;144.68;;;;;;;4.20;73.95;94413.28;1531825;92;21157;-46
2022/02/16 02:07:18;;;;;;;284.25;161.50;;;;;;;4.18;73.28;94419.13;1538197;92;22021;-46
2022/02/16 02:09:48;;;;;;;289.45;164.28;;;;;;;4.15;73.75;94424.04;1554423;91;21116;-45
2022/02/16 02:12:15;;;;;;;270.50;158.85;;;;;;;4.21;73.50;94413.45;1557506;90;21043;-47
2022/02/16 02:14:43;;;;;;;267.70;151.37;;;;;;;4.17;73.25;94403.98;1554927;91;21095;-46
2022/02/16 02:17:11;;;;;;;288.18;169.87;;;;;;;4.20;73.37;94407.23;1534410;92;21014;-45
2022/02/16 02:19:39;;;;;;;291.30;171.37;;;;;;;4.27;73.51;94406.34;1540798;92;21994;-46
2022/02/16 02:22:07;;;;;;;257.62;144.65;;;;;;;4.31;73.12;94401.02;1542125;92;21270;-46
2022/02/16 02:24:34;;;;;;;196.25;113.12;;;;;;;4.27;72.63;94396.20;1549145;91;21215;-47
2022/02/16 02:27:02;;;;;;;167.03;96.17;;;;;;;4.11;72.65;94393.39;1542480;91;21179;-46
2022/02/16 02:29:29;;;;;;;157.45;95.62;;;;;;;4.07;73.06;94396.74;1538803;91;21208;-46
2022/02/16 02:31:57;;;;;;;205.85;117.35;;;;;;;4.09;73.22;94391.66;1529561;92;21231;-46
2022/02/16 02:34:25;;;;;;;199.42;115.42;;;;;;;4.10;73.35;94383.69;1542075;91;21077;-47
2022/02/16 02:36:53;;;;;;;274.77;143.30;;;;;;;4.20;73.69;94395.59;1538944;92;21057;-50
2022/02/16 02:39:20;;;;;;;223.95;133.93;;;;;;;4.31;73.44;94392.85;1530462;91;21501;-46
2022/02/16 02:41:46;;;;;;;180.82;108.35;;;;;;;4.27;72.26;94390.76;1541236;91;21537;-46
2022/02/16 02:44:13;;;;;;;183.12;113.77;;;;;;;4.03;71.81;94391.95;1539615;92;21161;-46
2022/02/16 02:46:42;;;;;;;180.25;111.60;;;;;;;3.86;72.29;94388.93;1552171;92;21429;-46
2022/02/16 02:49:09;;;;;;;214.95;127.70;;;;;;;3.88;72.56;94391.25;1552298;91;20984;-47
2022/02/16 02:51:36;;;;;;;244.37;140.03;;;;;;;3.91;72.78;94393.14;1531294;91;21043;-46
2022/02/16 02:54:03;;;;;;;260.82;147.62;;;;;;;3.98;72.87;94389.72;1552263;91;21072;-47
2022/02/16 02:56:32;;;;;;;219.60;126.42;;;;;;;4.05;72.72;94389.59;1540452;92;22238;-46
2022/02/16 02:58:59;;;;;;;178.32;102.25;;;;;;;4.11;72.38;94384.45;1531475;91;21069;-46
2022/02/16 03:01:26;;;;;;;163.25;91.57;;;;;;;4.11;72.16;94387.17;1542518;92;21081;-46
2022/02/16 03:03:53;;;;;;;193.55;108.63;;;;;;;4.05;72.16;94380.06;1527841;92;21160;-46
2022/02/16 03:06:20;;;;;;;167.80;97.75;;;;;;;3.95;72.26;94376.94;1539053;92;21175;-45
2022/02/16 03:08:49;;;;;;;156.22;92.17;;;;;;;3.97;72.85;94369.13;1542294;92;21168;-47
2022/02/16 03:11:19;;;;;;;205.62;110.08;;;;;;;4.03;72.76;94378.95;1538897;92;21149;-46
2022/02/16 03:13:45;;;;;;;211.22;115.92;;;;;;;3.97;72.76;94380.59;1532761;91;21083;-46
2022/02/16 03:16:27;;;;;;;;;;;;;;;4.02;73.38;94379.53;1530381;91;21194;-46
2022/02/16 03:18:54;;;;;;;183.93;107.65;;;;;;;4.04;72.41;94377.77;1529797;91;20210;-47
2022/02/16 03:21:21;;;;;;;198.13;115.12;;;;;;;3.91;72.76;94383.01;1539035;91;21549;-47
2022/02/16 03:23:48;;;;;;;210.17;112.57;;;;;;;3.87;73.10;94380.94;1542466;92;21146;-47
2022/02/16 03:26:15;;;;;;;197.07;107.87;;;;;;;3.96;73.29;94382.56;1540961;91;21124;-46
2022/02/16 03:28:42;;;;;;;210.93;109.60;;;;;;;3.99;73.08;94386.39;1542871;91;21072;-46
2022/02/16 03:31:19;;;;;;;197.72;106.60;;;;;;;3.98;73.18;94378.83;1539115;91;21136;-47
2022/02/16 03:33:48;;;;;;;185.85;100.25;;;;;;;3.98;73.26;94378.05;1545058;92;21536;-45
2022/02/16 03:36:14;;;;;;;167.22;90.87;;;;;;;3.94;73.42;94380.06;1533508;91;21532;-46
2022/02/16 03:38:42;;;;;;;163.85;87.42;;;;;;;3.96;73.72;94377.69;1546151;92;21066;-47
2022/02/16 03:41:09;;;;;;;139.32;76.35;;;;;;;3.97;73.65;94371.07;1527820;91;21111;-46
2022/02/16 03:43:35;;;;;;;172.70;91.08;;;;;;;3.99;73.52;94376.86;1528376;93;21094;-46
2022/02/16 03:46:02;;;;;;;205.00;111.62;;;;;;;3.89;73.56;94378.58;1541242;91;21939;-47
2022/02/16 03:48:31;;;;;;;222.22;119.62;;;;;;;3.82;74.00;94366.45;1552694;92;21037;-47
2022/02/16 03:50:58;;;;;;;234.75;119.62;;;;;;;3.78;74.39;94374.48;1552173;91;21048;-46
2022/02/16 03:53:26;;;;;;;258.80;128.90;;;;;;;3.79;74.60;94362.42;1554058;92;21120;-46
2022/02/16 03:55:54;;;;;;;263.85;138.40;;;;;;;3.78;74.30;94364.39;1554442;91;21579;-46
2022/02/16 03:58:20;;;;;;;278.35;129.63;;;;;;;3.73;74.85;94366.80;1553751;91;21806;-46
2022/02/16 04:00:47;;;;;;;236.22;120.75;;;;;;;3.82;75.22;94369.18;1535000;90;21035;-46
2022/02/16 04:03:14;;;;;;;275.93;136.57;;;;;;;3.96;75.15;94360.80;1551415;91;21141;-46
2022/02/16 04:05:42;;;;;;;260.68;129.15;;;;;;;3.97;74.49;94358.83;1530892;92;21184;-46
2022/02/16 04:08:10;;;;;;;207.25;104.78;;;;;;;3.99;75.09;94347.72;1529757;92;21637;-45
2022/02/16 04:10:38;;;;;;;211.20;97.25;;;;;;;4.03;74.86;94359.91;1539688;92;21238;-46
2022/02/16 04:13:06;;;;;;;199.60;97.53;;;;;;;4.11;75.47;94377.06;1539821;91;21140;-48
2022/02/16 04:15:36;;;;;;;214.27;101.95;;;;;;;4.26;75.31;94392.55;1529745;92;21036;-47
2022/02/16 04:18:05;;;;;;;195.20;94.83;;;;;;;4.39;74.88;94396.22;1553661;90;21039;-47
2022/02/16 04:20:33;;;;;;;176.93;93.05;;;;;;;4.48;74.64;94405.39;1553274;90;21175;-46
2022/02/16 04:23:00;;;;;;;175.32;92.50;;;;;;;4.49;73.73;94403.42;1554707;90;21780;-46
2022/02/16 04:25:27;;;;;;;190.38;95.30;;;;;;;4.39;73.32;94403.03;1551489;91;21723;-46
2022/02/16 04:27:54;;;;;;;175.75;91.85;;;;;;;4.34;74.18;94393.95;1554265;90;21151;-46
2022/02/16 04:30:22;;;;;;;184.70;90.20;;;;;;;4.36;74.03;94395.09;1536394;92;21158;-50
2022/02/16 04:32:49;;;;;;;194.70;93.80;;;;;;;4.41;74.40;94398.69;1552478;91;21575;-46
2022/02/16 04:35:15;;;;;;;178.27;93.07;;;;;;;4.51;74.20;94393.66;1552216;91;21162;-46
2022/02/16 04:37:42;;;;;;;177.05;88.82;;;;;;;4.55;73.62;94392.99;1552994;91;21073;-46
2022/02/16 04:40:10;;;;;;;174.80;92.27;;;;;;;4.51;73.37;94392.30;1536933;90;21010;-47
2022/02/16 04:42:37;;;;;;;175.05;91.82;;;;;;;4.44;72.96;94386.95;1552965;91;21455;-47
2022/02/16 04:45:06;;;;;;;155.27;88.22;;;;;;;4.38;72.86;94390.60;1553221;90;21076;-47
2022/02/16 04:47:34;;;;;;;153.68;86.57;;;;;;;4.25;72.46;94391.77;1555647;90;21186;-46
2022/02/16 04:50:03;;;;;;;290.10;178.07;;;;;;;4.12;72.67;94393.57;1550838;92;21477;-47
2022/02/16 04:52:34;;;;;;;161.88;89.58;;;;;;;3.94;72.44;94399.11;1552292;91;21011;-46
2022/02/16 04:55:09;;;;;;;146.02;82.78;;;;;;;3.63;72.63;94398.42;1528861;92;21671;-47
2022/02/16 04:57:36;;;;;;;;;;;;;;;3.34;73.55;94406.03;1543947;92;21194;-47
2022/02/16 05:00:06;;;;;;;158.78;87.80;;;;;;;3.22;74.11;94409.90;1537529;91;21060;-48
2022/02/16 05:02:35;;;;;;;159.85;93.45;;;;;;;3.23;75.18;94415.52;1546404;91;21149;-46
2022/02/16 05:05:03;;;;;;;151.85;89.32;;;;;;;3.31;74.91;94406.86;1539810;91;21144;-47
2022/02/16 05:07:30;;;;;;;156.82;83.85;;;;;;;3.40;75.16;94413.16;1539052;92;21592;-47
2022/02/16 05:09:57;;;;;;;182.72;98.67;;;;;;;3.39;74.65;94403.45;1546600;91;21037;-46
2022/02/16 05:12:24;;;;;;;155.25;85.15;;;;;;;3.30;74.54;94403.17;1529547;92;21133;-45
2022/02/16 05:14:52;;;;;;;181.52;99.83;;;;;;;3.21;74.70;94407.00;1543606;92;21052;-47
2022/02/16 05:17:19;;;;;;;186.95;96.67;;;;;;;3.12;74.96;94406.72;1542976;90;21013;-47
2022/02/16 05:19:46;;;;;;;193.17;107.20;;;;;;;3.13;75.27;94417.77;1509072;91;21104;-47
2022/02/16 05:22:13;;;;;;;198.62;106.05;;;;;;;3.10;75.45;94420.73;1526816;92;21134;-46
2022/02/16 05:24:42;;;;;;;173.30;91.60;;;;;;;3.19;76.13;94427.00;1536108;92;22025;-48
2022/02/16 05:27:09;;;;;;;172.62;90.90;;;;;;;3.32;76.08;94408.97;1535796;92;20987;-47
2022/02/16 05:29:36;;;;;;;146.05;83.58;;;;;;;3.36;75.76;94421.92;1554441;91;21580;-49
2022/02/16 05:32:10;;;;;;;125.33;70.40;;;;;;;3.35;75.67;94418.45;1533301;92;21550;-50
2022/02/16 05:34:37;;;;;;;190.05;99.72;;;;;;;3.45;76.12;94408.61;1552012;91;21595;-49
2022/02/16 05:37:04;;;;;;;180.97;94.87;;;;;;;3.57;75.90;94427.84;1531044;92;21172;-46
2022/02/16 05:39:31;;;;;;;188.50;98.67;;;;;;;3.67;75.52;94411.38;1528934;92;21070;-47
2022/02/16 05:41:59;;;;;;;184.45;97.47;;;;;;;3.71;75.15;94416.16;1539242;92;21041;-46
2022/02/16 05:44:26;;;;;;;174.60;90.87;;;;;;;3.77;75.18;94421.92;1540754;92;21085;-45
2022/02/16 05:46:54;;;;;;;177.20;91.47;;;;;;;3.74;74.58;94403.12;1539248;91;21127;-46
2022/02/16 05:49:21;;;;;;;192.65;102.10;;;;;;;3.62;74.36;94398.83;1531578;92;21935;-45
2022/02/16 05:51:49;;;;;;;193.28;99.20;;;;;;;3.59;74.80;94397.72;1539580;91;21041;-45
2022/02/16 05:54:15;;;;;;;253.12;140.05;;;;;;;3.69;74.78;94378.34;1532287;91;21166;-44
2022/02/16 05:56:42;;;;;;;228.12;120.57;;;;;;;3.64;74.41;94387.72;1543070;92;21184;-45
2022/02/16 05:59:11;;;;;;;174.57;96.63;;;;;;;3.59;74.65;94405.87;1538113;92;21102;-47
2022/02/16 06:01:38;;;;;;;152.72;81.78;;;;;;;3.51;74.36;94398.98;1551284;91;21255;-46
2022/02/16 06:04:05;;;;;;;135.07;72.65;;;;;;;3.43;74.80;94410.36;1552282;91;21067;-46
2022/02/16 06:06:35;;;;;;;164.52;85.97;;;;;;;3.37;74.61;94441.12;1529839;92;21544;-46
2022/02/16 06:09:03;;;;;;;149.70;83.55;;;;;;;3.26;74.75;94428.28;1530380;91;21060;-45
2022/02/16 06:11:31;;;;;;;166.92;89.90;;;;;;;3.26;75.06;94434.47;1549674;91;21525;-45
2022/02/16 06:14:00;;;;;;;153.18;83.78;;;;;;;3.18;75.11;94452.63;1539069;92;21209;-45
2022/02/16 06:16:27;;;;;;;195.75;99.10;;;;;;;3.12;75.39;94447.48;1542502;91;21136;-45
2022/02/16 06:18:55;;;;;;;205.75;103.05;;;;;;;2.98;75.34;94449.78;1543055;92;21056;-46
2022/02/16 06:21:23;;;;;;;215.90;111.62;;;;;;;2.94;76.29;94452.34;1541975;91;21309;-46
2022/02/16 06:23:51;;;;;;;224.77;118.95;;;;;;;2.99;76.09;94450.53;1533717;91;21682;-46
2022/02/16 06:26:18;;;;;;;197.45;109.10;;;;;;;3.00;76.24;94448.00;1487684;95;21265;-46
2022/02/16 06:28:46;;;;;;;171.80;95.62;;;;;;;2.98;76.29;94434.84;1551637;92;21089;-47
2022/02/16 06:31:14;;;;;;;176.07;93.42;;;;;;;2.97;76.57;94433.30;1530153;92;21489;-46
2022/02/16 06:33:42;;;;;;;176.63;91.42;;;;;;;3.04;77.09;94431.09;1539690;91;21098;-46
2022/02/16 06:36:08;;;;;;;143.68;78.78;;;;;;;3.16;76.81;94419.09;1522036;92;21550;-46
2022/02/16 06:38:35;;;;;;;145.97;80.07;;;;;;;3.17;76.40;94413.05;1520375;92;21172;-45
2022/02/16 06:41:04;;;;;;;149.85;83.95;;;;;;;3.13;76.20;94412.33;1536096;91;21116;-48
2022/02/16 06:43:32;;;;;;;157.15;84.28;;;;;;;3.06;76.39;94405.64;1544356;91;21604;-47
2022/02/16 06:45:59;;;;;;;158.03;88.22;;;;;;;3.07;76.56;94407.93;1533746;91;21078;-47
2022/02/16 06:48:27;;;;;;;170.82;91.55;;;;;;;3.14;77.20;94397.56;1512570;92;21684;-46
2022/02/16 06:50:54;;;;;;;189.00;96.82;;;;;;;3.30;77.22;94390.95;1542507;91;21236;-46
2022/02/16 06:53:22;;;;;;;170.72;93.27;;;;;;;3.43;76.72;94406.89;1528945;91;21135;-47
2022/02/16 06:55:50;;;;;;;150.80;82.50;;;;;;;3.51;76.47;94415.30;1502027;93;21545;-47
2022/02/16 06:58:19;;;;;;;145.62;79.15;;;;;;;3.57;75.88;94412.31;1503893;93;22470;-44
2022/02/16 07:00:46;;;;;;;133.05;70.70;;;;;;;3.50;75.60;94395.33;1500436;94;21123;-45
2022/02/16 07:03:14;;;;;;;106.35;63.33;;;;;;;3.45;75.79;94409.97;1528700;92;21208;-54
2022/02/16 07:05:46;;;;;;;158.12;83.87;;;;;;;3.37;75.86;94406.57;1533625;90;28415;-54
2022/02/16 07:08:14;;;;;;;168.45;84.75;;;;;;;3.27;75.89;94421.67;1515689;91;21572;-53
2022/02/16 07:10:44;;;;;;;151.15;81.45;;;;;;;3.17;76.23;94421.20;1529973;90;21119;-50
2022/02/16 07:13:11;;;;;;;141.15;75.87;;;;;;;3.21;76.62;94413.80;1527279;92;21037;-47
2022/02/16 07:15:38;;;;;;;161.70;81.12;;;;;;;3.37;77.24;94415.30;1527794;92;22025;-44
2022/02/16 07:18:05;;;;;;;146.93;78.02;;;;;;;3.49;76.80;94417.66;1533906;91;21094;-49
2022/02/16 07:20:43;;;;;;;143.37;79.15;;;;;;;3.50;76.65;94402.88;1530285;90;21096;-49
2022/02/16 07:23:15;;;;;;;188.80;100.33;;;;;;;3.47;76.67;94398.09;1532002;90;21339;-51
2022/02/16 07:25:42;;;;;;;165.55;86.40;;;;;;;3.47;76.76;94392.08;1539435;91;21703;-49
2022/02/16 07:28:11;;;;;;;167.35;82.37;;;;;;;3.51;76.83;94394.90;1495773;92;21109;-50
2022/02/16 07:30:38;;;;;;;156.43;83.72;;;;;;;3.65;76.63;94392.59;1532072;91;21075;-48
2022/02/16 07:33:05;;;;;;;109.63;61.13;;;;;;;3.76;76.26;94389.09;1535326;90;21101;-48
2022/02/16 07:35:33;;;;;;;122.33;67.75;;;;;;;3.93;76.40;94390.77;1541428;91;21071;-45
2022/02/16 07:38:00;;;;;;;114.62;62.93;;;;;;;4.21;76.14;94390.31;1546931;90;21485;-46
2022/02/16 07:40:27;;;;;;;125.92;68.37;;;;;;;4.48;75.36;94390.98;1541467;90;21917;-50
2022/02/16 07:42:54;;;;;;;123.35;67.30;;;;;;;4.62;75.19;94386.66;1530750;91;21536;-47
2022/02/16 07:45:39;;;;;;;148.97;80.20;;;;;;;4.72;74.63;94393.84;1513404;91;21758;-48
2022/02/16 07:48:06;;;;;;;143.90;79.67;;;;;;;4.70;74.22;94395.64;1531396;91;21160;-48
2022/02/16 07:50:34;;;;;;;156.80;81.15;;;;;;;4.77;74.71;94391.41;1537716;90;21642;-47
2022/02/16 07:53:06;;;;;;;170.72;95.60;;;;;;;4.75;74.29;94389.70;1541943;91;21212;-47
2022/02/16 07:55:38;;;;;;;125.75;71.35;;;;;;;4.73;74.79;94387.20;1519406;92;21695;-49
2022/02/16 07:58:06;;;;;;;114.25;65.72;;;;;;;4.82;74.99;94374.56;1529294;91;21168;-47
2022/02/16 08:00:35;;;;;;;84.25;53.00;;;;;;;4.90;74.89;94359.63;1509995;92;21849;-49
2022/02/16 08:03:12;;;;;;;99.45;59.70;;;;;;;5.04;75.26;94359.92;1514345;92;21124;-46
2022/02/16 08:05:41;;;;;;;153.85;90.65;;;;;;;5.18;74.41;94359.02;1525042;90;21868;-50
2022/02/16 08:08:10;;;;;;;147.80;89.15;;;;;;;5.19;73.83;94367.98;1524772;92;21222;-50
2022/02/16 08:10:38;;;;;;;141.53;84.77;;;;;;;5.11;73.52;94370.70;1544206;90;21163;-51
2022/02/16 08:13:06;;;;;;;122.17;74.07;;;;;;;5.05;73.76;94365.55;1526085;91;21570;-51
2022/02/16 08:15:37;;;;;;;131.65;77.97;;;;;;;5.04;73.41;94362.06;1539990;90;21053;-48
2022/02/16 08:18:03;;;;;;;133.15;82.55;;;;;;;4.94;73.44;94353.50;1529074;92;21886;-47
2022/02/16 08:20:31;;;;;;;131.90;81.32;;;;;;;4.87;73.76;94352.29;1555519;89;21203;-50
2022/02/16 08:23:15;;;;;;;143.90;89.35;;;;;;;4.97;73.82;94345.09;1538648;91;21967;-49
2022/02/16 08:25:43;;;;;;;149.12;92.40;;;;;;;5.10;73.86;94336.42;1530903;91;21115;-46
2022/02/16 08:28:14;;;;;;;110.17;71.72;;;;;;;5.30;74.37;94344.75;1529563;92;21146;-47
2022/02/16 08:30:41;;;;;;;120.22;75.87;;;;;;;5.56;74.12;94347.27;1522059;91;21172;-47
2022/02/16 08:33:11;;;;;;;124.30;81.12;;;;;;;5.79;73.99;94345.02;1518946;92;21091;-47
2022/02/16 08:35:40;;;;;;;122.53;77.65;;;;;;;6.02;73.67;94342.11;1522745;90;21047;-48
2022/02/16 08:38:07;;;;;;;119.30;76.75;;;;;;;6.13;73.25;94333.07;1520874;92;20973;-49
2022/02/16 08:40:34;;;;;;;93.82;58.65;;;;;;;6.23;72.91;94326.55;1526248;92;21138;-49
2022/02/16 08:43:01;;;;;;;169.13;97.08;;;;;;;6.38;72.92;94324.41;1526509;91;22021;-48
2022/02/16 08:45:28;;;;;;;146.70;92.57;;;;;;;6.61;72.64;94324.17;1523962;91;21116;-48
2022/02/16 08:47:55;;;;;;;165.15;106.40;;;;;;;6.82;71.53;94326.91;1519894;90;21290;-48
2022/02/16 08:50:23;;;;;;;190.45;124.75;;;;;;;6.79;71.16;94314.11;1515534;92;21096;-49
2022/02/16 08:52:52;;;;;;;181.05;118.53;;;;;;;6.82;71.23;94317.34;1532873;91;21101;-47
2022/02/16 08:55:20;;;;;;;135.45;92.40;;;;;;;6.87;70.52;94319.56;1522868;92;21151;-53
2022/02/16 08:57:47;;;;;;;140.68;91.65;;;;;;;6.77;70.16;94315.14;1513894;93;21464;-48
2022/02/16 09:00:15;;;;;;;150.05;95.72;;;;;;;6.59;70.25;94317.59;1486046;94;21132;-47
2022/02/16 09:02:43;;;;;;;133.72;87.65;;;;;;;6.46;70.32;94316.77;1551228;90;22081;-51
2022/02/16 09:05:09;;;;;;;146.72;92.30;;;;;;;6.42;70.54;94310.64;1524875;92;21075;-53
2022/02/16 09:07:38;;;;;;;130.18;82.00;;;;;;;6.42;70.65;94306.55;1526948;90;21602;-53
2022/02/16 09:10:08;;;;;;;122.28;76.40;;;;;;;6.49;70.65;94305.75;1530363;91;22406;-53
2022/02/16 09:12:37;;;;;;;105.27;66.33;;;;;;;6.54;70.44;94303.85;1534729;90;21204;-53
2022/02/16 09:15:09;;;;;;;112.08;68.20;;;;;;;6.61;70.54;94306.41;1521369;92;21238;-55
2022/02/16 09:17:39;;;;;;;73.42;47.90;;;;;;;6.68;70.63;94308.19;1519214;90;21136;-48
2022/02/16 09:20:07;;;;;;;93.70;63.17;;;;;;;6.79;70.45;94308.64;1516689;92;21159;-54
2022/02/16 09:22:37;;;;;;;69.25;46.23;;;;;;;6.87;70.07;94301.79;1525558;91;21062;-49
2022/02/16 09:25:05;;;;;;;50.15;35.10;;;;;;;7.02;70.20;94290.00;1527566;92;21203;-50
2022/02/16 09:27:32;;;;;;;45.48;31.87;;;;;;;7.18;69.72;94283.83;1533341;90;21454;-50
2022/02/16 09:30:01;;;;;;;57.62;38.65;;;;;;;7.37;69.33;94284.22;1531517;91;21698;-48
2022/02/16 09:32:30;;;;;;;79.58;51.60;;;;;;;7.65;68.57;94286.09;1529028;91;22350;-47
2022/02/16 09:34:57;;;;;;;80.25;51.55;;;;;;;7.87;68.03;94282.83;1524122;90;21162;-47
2022/02/16 09:37:27;;;;;;;67.03;44.25;;;;;;;8.05;67.78;94280.28;1548635;91;21096;-47
2022/02/16 09:39:55;;;;;;;75.72;50.00;;;;;;;8.18;67.55;94282.42;1538430;90;21166;-48
2022/02/16 09:42:24;;;;;;;82.10;48.65;;;;;;;8.34;67.53;94275.41;1515172;91;21707;-48
2022/02/16 09:45:01;;;;;;;70.20;43.73;;;;;;;8.55;67.11;94271.92;1525447;91;22023;-50
2022/02/16 09:47:31;;;;;;;62.05;42.20;;;;;;;8.79;66.73;94269.52;1537683;90;21162;-46
2022/02/16 09:50:00;;;;;;;66.10;42.10;;;;;;;8.91;65.71;94266.08;1529375;91;21139;-48
2022/02/16 09:52:28;;;;;;;63.28;40.03;;;;;;;9.03;65.63;94261.75;1531710;91;21569;-51
2022/02/16 09:54:55;;;;;;;55.17;35.03;;;;;;;9.21;65.04;94249.51;1538323;90;21031;-48
2022/02/16 09:57:21;;;;;;;48.78;33.25;;;;;;;9.31;64.39;94255.19;1534528;91;21181;-49
2022/02/16 09:59:48;;;;;;;48.15;33.45;;;;;;;9.34;63.54;94252.91;1533515;91;21090;-47
2022/02/16 10:02:17;;;;;;;46.65;33.38;;;;;;;9.31;63.40;94247.72;1528925;91;21116;-50
2022/02/16 10:04:57;;;;;;;62.45;43.92;;;;;;;9.23;63.07;94251.19;1539757;91;21578;-50
2022/02/16 10:07:31;;;;;;;71.20;45.48;;;;;;;9.07;63.56;94241.18;1529524;92;21582;-51
2022/02/16 10:10:19;;;;;;;80.35;49.45;;;;;;;8.97;64.12;94234.13;1533182;92;21174;-48
2022/02/16 10:12:50;;;;;;;111.00;72.45;;;;;;;8.93;64.29;94233.50;1528131;91;21232;-49
2022/02/16 10:15:27;;;;;;;111.77;73.02;;;;;;;8.90;64.59;94239.11;1515730;92;21215;-48
2022/02/16 10:18:13;;;;;;;86.67;56.75;;;;;;;8.86;64.80;94226.73;1531337;91;21617;-53
2022/02/16 10:20:43;;;;;;;76.07;50.75;;;;;;;8.87;64.84;94218.07;1508158;92;48891;-51
2022/02/16 10:23:11;;;;;;;82.85;51.92;;;;;;;8.85;64.72;94203.27;1527303;91;21240;-49
2022/02/16 10:25:38;;;;;;;85.62;52.85;;;;;;;8.87;64.99;94195.35;1540718;91;21737;-48
2022/02/16 10:28:19;;;;;;;89.75;56.45;;;;;;;8.84;65.04;94186.03;1508828;91;21429;-48
2022/02/16 10:31:01;;;;;;;79.62;50.60;;;;;;;8.86;65.32;94187.75;1520989;92;22262;-49
2022/02/16 10:33:31;;;;;;;70.35;45.25;;;;;;;8.95;64.98;94179.55;1527465;92;21103;-51
2022/02/16 10:36:09;;;;;;;74.90;45.63;;;;;;;9.05;64.80;94171.53;1536613;91;21136;-50
2022/02/16 10:39:00;;;;;;;65.08;43.65;;;;;;;9.16;64.43;94170.48;1524559;92;21150;-49
2022/02/16 10:41:34;;;;;;;59.30;38.30;;;;;;;9.18;64.04;94159.23;1540603;91;22020;-50
2022/02/16 10:44:02;;;;;;;57.35;35.48;;;;;;;9.23;64.12;94157.88;1531547;92;21987;-53
2022/02/16 10:46:30;;;;;;;60.98;41.05;;;;;;;9.34;63.72;94151.34;1512925;91;21276;-48
2022/02/16 10:49:18;;;;;;;60.03;40.45;;;;;;;9.35;63.72;94139.14;1539522;90;21119;-48
2022/02/16 10:51:46;;;;;;;67.17;43.42;;;;;;;9.33;63.64;94133.34;1524599;92;21090;-49
2022/02/16 10:54:21;;;;;;;72.67;46.77;;;;;;;9.25;63.54;94130.13;1541889;90;21122;-49
2022/02/16 10:56:50;;;;;;;63.55;40.65;;;;;;;9.23;63.59;94124.95;1532362;91;21093;-49
2022/02/16 10:59:17;;;;;;;50.75;33.42;;;;;;;9.25;63.55;94122.52;1522063;92;21041;-49
2022/02/16 11:01:44;;;;;;;49.88;33.63;;;;;;;9.28;63.21;94127.84;1530431;91;21343;-51
2022/02/16 11:04:14;;;;;;;49.10;34.33;;;;;;;9.28;62.94;94117.48;1524411;91;21144;-50
2022/02/16 11:06:44;;;;;;;51.00;34.78;;;;;;;9.25;62.96;94118.39;1544433;89;21058;-51
2022/02/16 11:09:22;;;;;;;47.58;31.85;;;;;;;9.22;63.02;94112.45;1536423;92;21957;-55
2022/02/16 11:11:51;;;;;;;45.20;31.70;;;;;;;9.32;62.76;94108.49;1528311;91;21381;-50
2022/02/16 11:14:21;;;;;;;59.18;36.23;;;;;;;9.37;62.39;94107.89;1539377;91;22273;-49
2022/02/16 11:16:48;;;;;;;53.80;35.78;;;;;;;9.37;62.22;94103.77;1529082;91;21123;-48
2022/02/16 11:19:32;;;;;;;64.00;43.75;;;;;;;9.40;62.36;94100.14;1518193;92;21598;-48
2022/02/16 11:22:08;;;;;;;63.33;42.05;;;;;;;9.45;62.49;94103.02;1523325;92;21050;-50
2022/02/16 11:24:43;;;;;;;76.60;51.68;;;;;;;9.49;62.44;94105.03;1527867;92;21120;-49